Time;durP1;ratioP1;P1;durP2;ratioP2;P2;SDS_P1;SDS_P2;PMS_P1;PMS_P2;Temp;Humidity;BMP_temperature;BMP_pressure;BME280_temperature;BME280_humidity;BME280_pressure;Samples;Min_cycle;Max_cycle;Signal;HPM_P1;HPM_P2
2022/12/07 00:01:15;;;;;;;12.43;8.98;;;2.50;99.90;;;;;;5010834;28;20034;-89
2022/12/07 00:03:42;;;;;;;8.60;7.80;;;2.40;99.90;;;;;;5012772;28;20108;-87
2022/12/07 00:06:10;;;;;;;15.25;9.05;;;2.40;99.90;;;;;;5010149;28;20030;-88
2022/12/07 00:08:36;;;;;;;8.75;7.90;;;2.30;99.90;;;;;;5020087;28;20044;-88
2022/12/07 00:11:07;;;;;;;10.48;9.35;;;2.20;99.90;;;;;;5013810;28;20030;-87
2022/12/07 00:13:33;;;;;;;8.48;7.68;;;2.20;99.90;;;;;;5014020;28;20030;-89
2022/12/07 00:16:27;;;;;;;9.10;8.18;;;2.30;99.90;;;;;;5011049;28;20034;-87
2022/12/07 00:18:53;;;;;;;11.88;7.93;;;2.40;99.90;;;;;;5006693;28;20041;-88
2022/12/07 00:21:25;;;;;;;11.55;8.20;;;2.30;99.90;;;;;;5011672;28;20108;-88
2022/12/07 00:23:52;;;;;;;8.60;7.45;;;2.30;99.90;;;;;;5011031;28;20042;-88
2022/12/07 00:26:19;;;;;;;9.38;8.48;;;2.40;99.90;;;;;;5018247;28;20395;-88
2022/12/07 00:28:46;;;;;;;10.45;8.35;;;2.40;99.90;;;;;;5010770;28;20049;-87
2022/12/07 00:31:14;;;;;;;8.85;7.85;;;2.40;99.90;;;;;;5013188;28;20034;-89
2022/12/07 00:33:39;;;;;;;12.75;8.23;;;2.40;99.90;;;;;;5015454;28;20048;-89
2022/12/07 00:36:12;;;;;;;15.05;8.73;;;2.40;99.90;;;;;;5013109;28;20515;-87
2022/12/07 00:38:38;;;;;;;8.80;7.90;;;2.30;99.90;;;;;;5016878;28;20037;-88
2022/12/07 00:41:19;;;;;;;8.82;7.88;;;2.30;99.90;;;;;;5010903;28;20030;-89
2022/12/07 00:43:46;;;;;;;9.27;7.80;;;2.40;99.90;;;;;;5015365;28;20029;-86
2022/12/07 00:46:12;;;;;;;9.93;8.48;;;2.40;99.90;;;;;;5011309;28;20037;-89
2022/12/07 00:48:38;;;;;;;11.35;8.75;;;2.30;99.90;;;;;;5022920;28;20522;-88
2022/12/07 00:51:05;;;;;;;8.75;7.85;;;2.20;99.90;;;;;;5014738;28;20550;-88
2022/12/07 00:53:33;;;;;;;8.48;7.68;;;2.20;99.90;;;;;;5014568;28;20432;-86
2022/12/07 00:56:05;;;;;;;16.58;8.48;;;2.20;99.90;;;;;;4999701;28;20030;-87
2022/12/07 00:58:30;;;;;;;9.88;8.52;;;2.30;99.90;;;;;;5016403;28;20163;-88
2022/12/07 01:01:01;;;;;;;10.40;8.23;;;2.30;99.90;;;;;;5016084;28;20843;-87
2022/12/07 01:03:27;;;;;;;10.15;7.38;;;2.40;99.90;;;;;;5009915;28;20052;-87
2022/12/07 01:05:54;;;;;;;11.73;8.82;;;2.40;99.90;;;;;;5012748;28;20492;-87
2022/12/07 01:08:20;;;;;;;12.85;9.40;;;2.40;99.90;;;;;;5014290;28;20057;-86
2022/12/07 01:10:46;;;;;;;9.13;7.88;;;2.40;99.90;;;;;;5013004;28;20030;-87
2022/12/07 01:13:12;;;;;;;10.25;7.55;;;2.40;99.90;;;;;;5018611;28;20079;-88
2022/12/07 01:15:43;;;;;;;11.45;8.75;;;2.50;99.90;;;;;;5018494;28;20479;-88
2022/12/07 01:18:09;;;;;;;9.55;7.30;;;2.50;99.90;;;;;;5014136;28;20065;-86
2022/12/07 01:20:35;;;;;;;8.23;7.53;;;2.70;99.90;;;;;;5014716;28;20038;-87
2022/12/07 01:23:01;;;;;;;9.48;8.20;;;2.50;99.90;;;;;;5009602;28;20034;-88
2022/12/07 01:25:27;;;;;;;11.55;8.15;;;2.40;99.90;;;;;;5004613;28;20034;-88
2022/12/07 01:27:52;;;;;;;10.50;8.05;;;2.40;99.90;;;;;;5018326;28;20428;-87
2022/12/07 01:30:18;;;;;;;12.25;9.23;;;2.40;99.90;;;;;;5018344;28;20041;-86
2022/12/07 01:32:44;;;;;;;10.85;8.40;;;2.30;99.90;;;;;;5011762;28;20116;-85
2022/12/07 01:35:09;;;;;;;9.88;8.50;;;2.20;99.90;;;;;;5022168;28;20117;-87
2022/12/07 01:37:39;;;;;;;11.77;8.93;;;2.20;99.90;;;;;;5015016;28;20113;-88
2022/12/07 01:40:06;;;;;;;8.52;7.72;;;2.20;99.90;;;;;;5021008;28;20057;-88
2022/12/07 01:42:33;;;;;;;11.73;8.82;;;2.20;99.90;;;;;;5012053;28;20041;-88
2022/12/07 01:45:17;;;;;;;10.10;8.45;;;2.20;99.90;;;;;;5010106;28;20030;-88
2022/12/07 01:47:58;;;;;;;10.10;8.80;;;2.10;99.90;;;;;;5016715;28;20407;-87
2022/12/07 01:50:25;;;;;;;;;;;2.10;99.90;;;;;;5010124;28;20062;-87
2022/12/07 01:52:53;;;;;;;8.25;7.55;;;2.20;99.90;;;;;;5020569;28;20067;-87
2022/12/07 01:55:20;;;;;;;10.18;8.75;;;2.20;99.90;;;;;;5019396;28;20029;-86
2022/12/07 01:57:50;;;;;;;10.48;8.50;;;2.20;99.90;;;;;;5021897;28;20025;-88
2022/12/07 02:00:17;;;;;;;9.57;8.50;;;2.00;99.90;;;;;;5009324;28;20045;-87
2022/12/07 02:03:01;;;;;;;8.45;7.60;;;2.10;99.90;;;;;;5015068;28;20051;-88
2022/12/07 02:05:28;;;;;;;9.13;8.18;;;2.10;99.90;;;;;;5019232;28;20026;-87
2022/12/07 02:07:56;;;;;;;9.70;8.65;;;2.20;99.90;;;;;;5016248;28;20443;-85
2022/12/07 02:10:26;;;;;;;10.07;8.52;;;2.10;99.90;;;;;;5021827;28;20033;-86
2022/12/07 02:13:14;;;;;;;13.02;8.70;;;2.10;99.90;;;;;;5017535;28;20049;-87
2022/12/07 02:16:18;;;;;;;12.88;8.82;;;2.10;99.90;;;;;;5021844;28;20368;-88
2022/12/07 02:18:52;;;;;;;11.13;8.25;;;2.00;99.90;;;;;;5015670;28;20021;-87
2022/12/07 02:21:26;;;;;;;9.95;8.85;;;2.00;99.90;;;;;;5017636;28;20180;-88
2022/12/07 02:24:13;;;;;;;8.77;7.97;;;2.10;99.90;;;;;;4998904;28;20039;-89
2022/12/07 02:26:57;;;;;;;9.48;8.57;;;2.10;99.90;;;;;;5023789;28;20041;-89
2022/12/07 02:29:33;;;;;;;11.02;9.00;;;2.20;99.90;;;;;;5017447;28;20073;-90
2022/12/07 02:32:23;;;;;;;10.73;8.10;;;2.30;99.90;;;;;;5017381;28;20042;-87
2022/12/07 02:35:04;;;;;;;9.18;8.27;;;2.30;99.90;;;;;;5014279;28;20109;-87
2022/12/07 02:37:54;;;;;;;13.45;9.05;;;2.40;99.90;;;;;;5020046;28;20145;-87
2022/12/07 02:40:49;;;;;;;9.17;7.77;;;2.30;99.90;;;;;;5019883;28;20045;-88
2022/12/07 02:43:41;;;;;;;10.40;8.32;;;2.30;99.90;;;;;;5006228;28;20030;-89
2022/12/07 02:46:14;;;;;;;9.32;7.72;;;2.20;99.90;;;;;;5012916;28;20030;-89
2022/12/07 02:48:42;;;;;;;8.25;7.45;;;2.10;99.90;;;;;;5012630;28;20141;-87
2022/12/07 02:51:08;;;;;;;9.68;8.38;;;2.10;99.90;;;;;;5037869;28;20041;-88
2022/12/07 02:53:34;;;;;;;8.68;7.85;;;2.20;99.90;;;;;;5009991;28;20110;-89
2022/12/07 02:56:07;;;;;;;15.50;10.40;;;2.10;99.90;;;;;;5020763;28;20116;-88
2022/12/07 02:59:02;;;;;;;11.70;9.52;;;2.20;99.90;;;;;;5006367;28;20030;-88
2022/12/07 03:01:44;;;;;;;11.05;8.93;;;2.20;99.90;;;;;;5009434;28;20124;-88
2022/12/07 03:04:31;;;;;;;10.25;8.75;;;2.20;99.90;;;;;;5017548;28;20029;-88
2022/12/07 03:07:04;;;;;;;14.13;8.65;;;2.20;99.90;;;;;;5016349;28;20030;-87
2022/12/07 03:09:45;;;;;;;13.85;10.27;;;2.30;99.90;;;;;;5017035;28;20504;-89
2022/12/07 03:12:20;;;;;;;13.70;10.15;;;2.20;99.90;;;;;;5020179;28;20171;-87
2022/12/07 03:14:52;;;;;;;10.00;8.55;;;2.30;99.90;;;;;;5013505;28;20034;-88
2022/12/07 03:17:23;;;;;;;11.27;9.27;;;2.10;99.90;;;;;;5013967;28;20025;-87
2022/12/07 03:19:50;;;;;;;10.50;8.75;;;2.00;99.90;;;;;;5017561;28;20488;-86
2022/12/07 03:22:17;;;;;;;10.95;9.88;;;2.00;99.90;;;;;;4983367;28;20081;-86
2022/12/07 03:24:52;;;;;;;13.90;10.25;;;2.10;99.90;;;;;;5004013;28;20092;-88
2022/12/07 03:27:25;;;;;;;11.57;10.18;;;2.00;99.90;;;;;;5010271;28;20022;-88
2022/12/07 03:30:28;;;;;;;10.82;9.80;;;2.00;99.90;;;;;;5013086;28;20121;-87
2022/12/07 03:33:19;;;;;;;14.25;13.10;;;1.90;99.90;;;;;;4988703;28;20644;-87
2022/12/07 03:35:52;;;;;;;15.05;12.05;;;1.90;99.90;;;;;;5018676;28;20092;-90
2022/12/07 03:38:32;;;;;;;15.45;14.13;;;1.80;99.90;;;;;;4998250;28;20029;-86
2022/12/07 03:41:24;;;;;;;15.70;14.40;;;1.70;99.90;;;;;;5015292;28;20022;-87
2022/12/07 03:43:50;;;;;;;19.10;16.20;;;1.60;99.90;;;;;;5016271;28;20432;-87
2022/12/07 03:46:34;;;;;;;23.90;22.33;;;1.60;99.90;;;;;;5015820;28;20082;-86
2022/12/07 03:49:23;;;;;;;22.15;20.25;;;1.60;99.90;;;;;;5016619;28;20502;-88
2022/12/07 03:51:55;;;;;;;20.25;18.33;;;1.60;99.90;;;;;;5017062;28;20628;-89
2022/12/07 03:54:54;;;;;;;23.73;21.77;;;1.60;99.90;;;;;;5020285;28;20033;-88
2022/12/07 03:57:21;;;;;;;19.33;17.98;;;1.60;99.90;;;;;;4998336;28;20170;-90
2022/12/07 03:59:47;;;;;;;23.60;21.70;;;1.60;99.90;;;;;;5018275;28;20025;-90
2022/12/07 04:02:14;;;;;;;20.50;19.15;;;1.60;99.90;;;;;;5013725;28;20756;-89
2022/12/07 04:04:41;;;;;;;25.40;23.45;;;1.50;99.90;;;;;;5020154;28;20038;-86
2022/12/07 04:07:07;;;;;;;23.00;21.20;;;1.40;99.90;;;;;;5017616;28;20029;-88
2022/12/07 04:09:32;;;;;;;23.50;22.00;;;1.40;99.90;;;;;;4997175;28;20503;-88
2022/12/07 04:11:58;;;;;;;22.40;20.83;;;1.30;99.90;;;;;;5020671;28;20765;-87
2022/12/07 04:14:26;;;;;;;24.00;22.33;;;1.30;99.90;;;;;;5011376;28;20030;-89
2022/12/07 04:16:56;;;;;;;22.73;21.23;;;1.40;99.90;;;;;;5018700;28;20640;-87
2022/12/07 04:19:27;;;;;;;22.10;20.73;;;1.30;99.90;;;;;;5015323;28;20030;-88
2022/12/07 04:21:53;;;;;;;20.58;19.05;;;1.30;99.90;;;;;;5013078;28;20569;-91
2022/12/07 04:24:19;;;;;;;29.45;27.52;;;1.30;99.90;;;;;;5012301;28;20598;-88
2022/12/07 04:26:45;;;;;;;27.40;25.65;;;1.30;99.90;;;;;;4985309;28;20046;-88
2022/12/07 04:29:12;;;;;;;31.55;29.10;;;1.30;99.90;;;;;;5002894;28;20050;-89
2022/12/07 04:31:38;;;;;;;25.02;23.42;;;1.50;99.90;;;;;;5005662;28;20065;-90
2022/12/07 04:34:04;;;;;;;28.90;27.00;;;1.30;99.90;;;;;;5004649;28;20129;-88
2022/12/07 04:36:31;;;;;;;25.27;23.45;;;1.30;99.90;;;;;;5012876;28;20032;-90
2022/12/07 04:38:56;;;;;;;27.52;25.80;;;1.30;99.90;;;;;;5012825;28;20079;-87
2022/12/07 04:41:26;;;;;;;31.13;29.23;;;1.30;99.90;;;;;;5020728;28;20038;-88
2022/12/07 04:43:56;;;;;;;22.33;20.63;;;1.30;99.90;;;;;;5014404;28;20033;-86
2022/12/07 04:46:23;;;;;;;21.90;20.50;;;1.20;99.90;;;;;;5020113;28;20032;-89
2022/12/07 04:48:49;;;;;;;19.52;17.80;;;1.20;99.90;;;;;;5013228;28;20285;-87
2022/12/07 04:51:24;;;;;;;24.52;22.98;;;1.20;99.90;;;;;;5019223;28;20029;-87
2022/12/07 04:53:51;;;;;;;24.45;22.90;;;1.20;99.90;;;;;;5016496;28;20053;-90
2022/12/07 04:56:17;;;;;;;25.38;23.33;;;1.30;99.90;;;;;;5015903;28;20051;-88
2022/12/07 04:58:45;;;;;;;24.70;23.17;;;1.30;99.90;;;;;;5020259;28;20021;-88
2022/12/07 05:01:11;;;;;;;26.80;25.08;;;1.30;99.90;;;;;;5032383;28;20038;-88
2022/12/07 05:03:37;;;;;;;21.02;19.35;;;1.40;99.90;;;;;;5019892;28;20046;-88
2022/12/07 05:06:04;;;;;;;28.27;24.30;;;1.30;99.90;;;;;;5015900;28;20036;-89
2022/12/07 05:08:30;;;;;;;25.75;24.17;;;1.20;99.90;;;;;;5021399;28;20037;-88
2022/12/07 05:10:55;;;;;;;26.08;24.60;;;1.20;99.90;;;;;;5020306;28;20045;-87
2022/12/07 05:13:21;;;;;;;26.27;24.23;;;1.20;99.90;;;;;;5013795;28;20034;-88
2022/12/07 05:15:48;;;;;;;20.00;18.77;;;1.20;99.90;;;;;;5019892;28;20091;-88
2022/12/07 05:18:14;;;;;;;22.77;21.50;;;1.20;99.90;;;;;;5008696;28;20402;-88
2022/12/07 05:20:41;;;;;;;24.25;22.55;;;1.20;99.90;;;;;;5023953;28;20040;-88
2022/12/07 05:23:07;;;;;;;24.98;23.23;;;1.20;99.90;;;;;;5018767;28;20021;-90
2022/12/07 05:25:33;;;;;;;31.08;29.17;;;1.10;99.90;;;;;;5014410;28;20497;-88
2022/12/07 05:27:58;;;;;;;28.80;26.67;;;1.20;99.90;;;;;;5005467;28;20053;-85
2022/12/07 05:30:24;;;;;;;31.05;29.35;;;1.20;99.90;;;;;;4999845;28;20412;-85
2022/12/07 05:32:51;;;;;;;41.15;38.97;;;1.20;99.90;;;;;;5016497;28;20555;-89
2022/12/07 05:35:17;;;;;;;34.58;32.38;;;1.10;99.90;;;;;;5018588;28;20037;-84
2022/12/07 05:37:48;;;;;;;31.45;29.40;;;1.10;99.90;;;;;;5020856;28;20029;-92
2022/12/07 05:40:15;;;;;;;34.05;32.28;;;1.20;99.90;;;;;;5012589;28;20457;-88
2022/12/07 05:42:41;;;;;;;27.98;26.20;;;1.20;99.90;;;;;;5013882;28;20522;-87
2022/12/07 05:45:08;;;;;;;28.30;26.60;;;1.10;99.90;;;;;;5033806;28;20038;-88
2022/12/07 05:47:33;;;;;;;29.38;27.48;;;1.10;99.90;;;;;;5015412;28;20045;-88
2022/12/07 05:49:59;;;;;;;27.45;25.42;;;1.10;99.90;;;;;;5046311;28;20034;-88
2022/12/07 05:52:25;;;;;;;31.95;29.20;;;1.10;99.90;;;;;;5001745;28;20588;-87
2022/12/07 05:54:51;;;;;;;31.95;30.02;;;1.10;99.90;;;;;;4992697;28;20388;-87
2022/12/07 05:57:17;;;;;;;29.05;27.42;;;1.10;99.90;;;;;;5006696;28;20069;-88
2022/12/07 05:59:43;;;;;;;29.42;26.40;;;1.10;99.90;;;;;;5003952;28;20025;-87
2022/12/07 06:02:12;;;;;;;27.92;26.27;;;1.10;99.90;;;;;;4987459;28;20118;-89
2022/12/07 06:04:42;;;;;;;24.25;22.83;;;1.10;99.90;;;;;;5005890;28;20492;-87
2022/12/07 06:07:09;;;;;;;27.90;26.42;;;1.20;99.90;;;;;;5018245;28;20516;-88
2022/12/07 06:09:35;;;;;;;24.50;22.92;;;1.20;99.90;;;;;;5019347;28;20052;-88
2022/12/07 06:14:45;;;;;;;27.38;25.63;;;1.10;99.90;;;;;;5015414;28;20032;-89
2022/12/07 06:17:12;;;;;;;27.80;26.23;;;1.10;99.90;;;;;;5050690;28;20033;-89
2022/12/07 06:19:39;;;;;;;28.58;26.80;;;1.10;99.90;;;;;;5020084;28;20026;-89
2022/12/07 06:22:05;;;;;;;33.05;30.85;;;1.10;99.90;;;;;;5016209;28;20026;-89
2022/12/07 06:24:32;;;;;;;31.67;29.50;;;1.10;99.90;;;;;;5021166;28;20064;-86
2022/12/07 06:26:59;;;;;;;25.83;24.20;;;1.00;99.90;;;;;;5017441;28;20026;-90
2022/12/07 06:29:25;;;;;;;30.17;28.15;;;1.00;99.90;;;;;;5019965;28;20572;-88
2022/12/07 06:31:51;;;;;;;37.92;35.50;;;0.90;99.90;;;;;;5017637;28;20088;-88
2022/12/07 06:34:19;;;;;;;29.98;27.80;;;0.90;99.90;;;;;;5017202;28;20021;-88
2022/12/07 06:36:45;;;;;;;30.75;28.85;;;1.00;99.90;;;;;;5019717;28;20028;-88
2022/12/07 06:39:11;;;;;;;36.28;34.33;;;1.00;99.90;;;;;;5013870;28;20030;-89
2022/12/07 06:41:38;;;;;;;28.08;25.77;;;1.00;99.90;;;;;;5012414;28;20042;-90
2022/12/07 06:44:06;;;;;;;27.92;26.45;;;0.90;99.90;;;;;;5014486;28;20045;-89
2022/12/07 06:46:32;;;;;;;24.25;22.05;;;1.00;99.90;;;;;;5018733;28;20524;-89
2022/12/07 06:48:58;;;;;;;27.80;25.80;;;1.00;99.90;;;;;;5015506;28;20033;-90
2022/12/07 06:51:24;;;;;;;22.83;21.25;;;1.00;99.90;;;;;;4996996;28;20049;-89
2022/12/07 06:53:49;;;;;;;25.70;23.85;;;1.00;99.90;;;;;;5016138;28;20079;-90
2022/12/07 06:56:16;;;;;;;28.50;26.60;;;1.00;99.90;;;;;;5012311;28;20033;-89
2022/12/07 06:58:41;;;;;;;33.75;31.58;;;1.00;99.90;;;;;;5021705;28;20045;-89
2022/12/07 07:01:12;;;;;;;40.83;38.28;;;0.80;99.90;;;;;;4994998;28;20030;-90
2022/12/07 07:03:38;;;;;;;36.85;34.65;;;0.90;99.90;;;;;;5008520;28;20584;-89
2022/12/07 07:06:05;;;;;;;32.53;30.67;;;0.90;99.90;;;;;;5011692;28;20041;-89
2022/12/07 07:08:31;;;;;;;28.23;26.55;;;0.90;99.90;;;;;;4998623;28;20034;-88
2022/12/07 07:10:57;;;;;;;32.03;29.90;;;0.90;99.90;;;;;;5017360;28;20033;-89
2022/12/07 07:13:23;;;;;;;37.80;35.60;;;0.90;99.90;;;;;;5007445;28;20039;-89
2022/12/07 07:15:48;;;;;;;31.90;29.90;;;0.90;99.90;;;;;;5014652;28;20484;-89
2022/12/07 07:18:14;;;;;;;30.58;28.45;;;0.90;99.90;;;;;;5017413;28;20029;-90
2022/12/07 07:20:40;;;;;;;35.10;33.00;;;0.90;99.90;;;;;;5010941;28;20041;-88
2022/12/07 07:23:06;;;;;;;26.20;24.58;;;0.90;99.90;;;;;;5014967;28;20483;-89
2022/12/07 07:25:33;;;;;;;32.53;30.77;;;0.90;99.90;;;;;;5016881;28;20083;-88
2022/12/07 07:27:59;;;;;;;33.70;31.65;;;0.90;99.90;;;;;;5009908;28;20122;-90
2022/12/07 07:30:25;;;;;;;25.23;23.48;;;0.90;99.90;;;;;;5012926;28;20029;-89
2022/12/07 07:32:51;;;;;;;34.08;32.22;;;0.80;99.90;;;;;;5013544;28;20027;-89
2022/12/07 07:35:16;;;;;;;33.30;31.58;;;0.80;99.90;;;;;;4997941;28;20120;-90
2022/12/07 07:37:42;;;;;;;32.72;30.35;;;0.90;99.90;;;;;;5017190;28;20665;-89
2022/12/07 07:40:09;;;;;;;31.55;29.27;;;0.90;99.90;;;;;;5000688;28;20025;-90
2022/12/07 07:42:35;;;;;;;30.50;28.55;;;0.80;99.90;;;;;;5008380;28;20728;-89
2022/12/07 07:45:00;;;;;;;25.73;24.10;;;0.80;99.90;;;;;;5019895;28;20060;-90
2022/12/07 07:47:26;;;;;;;30.05;28.40;;;0.80;99.90;;;;;;5014181;28;20104;-89
2022/12/07 07:49:52;;;;;;;26.75;25.15;;;0.90;99.90;;;;;;5019398;28;20075;-90
2022/12/07 07:52:17;;;;;;;32.00;29.77;;;1.00;99.90;;;;;;5018799;28;20491;-89
2022/12/07 07:54:43;;;;;;;30.50;28.83;;;1.00;99.90;;;;;;4995976;28;20041;-89
2022/12/07 07:57:09;;;;;;;31.45;29.58;;;1.00;99.90;;;;;;5020971;28;20099;-90
2022/12/07 07:59:34;;;;;;;26.90;25.30;;;1.20;99.90;;;;;;5011390;28;20053;-90
2022/12/07 08:02:01;;;;;;;70.15;66.03;;;1.10;99.90;;;;;;5013669;28;20785;-89
2022/12/07 08:04:27;;;;;;;26.77;24.73;;;1.10;99.90;;;;;;5015577;28;20034;-90
2022/12/07 08:06:54;;;;;;;27.23;24.63;;;1.10;99.90;;;;;;4999030;28;20080;-89
2022/12/07 08:09:19;;;;;;;32.53;30.58;;;1.10;99.90;;;;;;4997852;28;20044;-88
2022/12/07 08:11:45;;;;;;;26.17;24.60;;;1.00;99.90;;;;;;5010999;28;20038;-88
2022/12/07 08:14:11;;;;;;;29.42;27.42;;;1.10;99.90;;;;;;5021643;28;20030;-90
2022/12/07 08:16:37;;;;;;;31.40;29.35;;;1.10;99.90;;;;;;4996851;28;20039;-89
2022/12/07 08:19:05;;;;;;;36.17;33.05;;;1.10;99.90;;;;;;5018849;28;20021;-90
2022/12/07 08:21:31;;;;;;;38.88;36.03;;;1.10;99.90;;;;;;5018021;28;20041;-90
2022/12/07 08:23:57;;;;;;;32.85;30.67;;;1.10;99.90;;;;;;4994346;28;20033;-90
2022/12/07 08:26:22;;;;;;;34.50;32.30;;;1.10;99.90;;;;;;5042233;28;20395;-88
2022/12/07 08:28:48;;;;;;;34.97;32.97;;;1.10;99.90;;;;;;5009961;28;20054;-90
2022/12/07 08:31:18;;;;;;;30.55;28.63;;;1.10;99.90;;;;;;5002219;28;20045;-89
2022/12/07 08:33:48;;;;;;;45.80;43.17;;;1.10;99.90;;;;;;5022144;28;20030;-90
2022/12/07 08:36:15;;;;;;;33.83;31.67;;;1.10;99.90;;;;;;5018474;28;20037;-89
2022/12/07 08:38:41;;;;;;;38.60;35.63;;;1.20;99.90;;;;;;5016987;28;20543;-90
2022/12/07 08:41:07;;;;;;;39.90;37.05;;;1.30;99.90;;;;;;5019986;28;20055;-90
2022/12/07 08:43:34;;;;;;;40.83;38.33;;;1.30;99.90;;;;;;5021562;28;20026;-89
2022/12/07 08:46:18;;;;;;;43.10;40.70;;;1.40;99.90;;;;;;4998587;28;20034;-89
2022/12/07 08:48:54;;;;;;;33.28;30.70;;;1.40;99.90;;;;;;5021405;28;20125;-89
2022/12/07 08:51:21;;;;;;;30.92;28.90;;;1.40;99.90;;;;;;5014049;28;20053;-90
2022/12/07 08:53:48;;;;;;;39.63;37.35;;;1.40;99.90;;;;;;5021812;28;20534;-89
2022/12/07 08:56:13;;;;;;;37.67;35.15;;;1.40;99.90;;;;;;5021883;28;20052;-90
2022/12/07 08:58:40;;;;;;;38.80;36.47;;;1.40;99.90;;;;;;5016849;28;20079;-89
2022/12/07 09:01:06;;;;;;;35.28;33.00;;;1.50;99.90;;;;;;5017622;28;20054;-89
2022/12/07 09:03:31;;;;;;;34.78;32.88;;;1.50;99.90;;;;;;4998091;28;20061;-89
2022/12/07 09:05:59;;;;;;;33.00;30.75;;;1.50;99.90;;;;;;5019557;28;20029;-88
2022/12/07 09:08:30;;;;;;;31.65;29.80;;;1.50;99.90;;;;;;5018000;28;20026;-91
2022/12/07 09:10:56;;;;;;;45.17;42.47;;;1.50;99.90;;;;;;5024162;28;20028;-89
2022/12/07 09:13:21;;;;;;;32.08;30.05;;;1.40;99.90;;;;;;5022859;28;20427;-89
2022/12/07 09:15:47;;;;;;;45.42;43.03;;;1.30;99.90;;;;;;5013144;28;20060;-88
2022/12/07 09:18:13;;;;;;;27.88;26.05;;;1.40;99.90;;;;;;5024296;28;20036;-90
2022/12/07 09:20:39;;;;;;;30.90;28.85;;;1.30;99.90;;;;;;4983975;28;20038;-89
2022/12/07 09:23:06;;;;;;;35.42;33.47;;;1.30;99.90;;;;;;5008841;28;20026;-89
2022/12/07 09:25:32;;;;;;;31.05;28.92;;;1.10;99.90;;;;;;5020737;28;20046;-89
2022/12/07 09:27:58;;;;;;;34.22;31.98;;;1.10;99.90;;;;;;5015076;28;20037;-90
2022/12/07 09:30:26;;;;;;;33.80;31.88;;;1.20;99.90;;;;;;5020560;28;20037;-89
2022/12/07 09:32:54;;;;;;;27.90;25.75;;;1.10;99.90;;;;;;5012259;28;20400;-90
2022/12/07 09:35:20;;;;;;;30.60;28.77;;;1.00;99.90;;;;;;5019705;28;20056;-89
2022/12/07 09:37:45;;;;;;;31.95;30.17;;;1.00;99.90;;;;;;5044997;28;20452;-90
2022/12/07 09:40:13;;;;;;;29.40;27.50;;;1.10;99.90;;;;;;5017963;28;20128;-91
2022/12/07 09:42:45;;;;;;;33.30;31.35;;;1.10;99.90;;;;;;5017833;28;20033;-89
2022/12/07 09:45:23;;;;;;;29.65;27.60;;;1.30;99.90;;;;;;5016769;28;20423;-90
2022/12/07 09:47:49;;;;;;;40.20;37.97;;;1.40;99.90;;;;;;5021868;28;20026;-90
2022/12/07 09:50:22;;;;;;;37.25;34.67;;;1.50;99.90;;;;;;5015239;28;20542;-90
2022/12/07 09:52:49;;;;;;;28.33;26.63;;;1.60;99.90;;;;;;5018700;28;20128;-89
2022/12/07 09:55:27;;;;;;;39.25;36.38;;;1.70;99.90;;;;;;5019258;28;21353;-89
2022/12/07 09:57:53;;;;;;;29.75;28.02;;;1.80;99.90;;;;;;5015020;28;20034;-89
2022/12/07 10:00:22;;;;;;;29.92;27.88;;;1.80;99.90;;;;;;5013860;28;20429;-88
2022/12/07 10:03:11;;;;;;;28.92;27.13;;;1.90;99.90;;;;;;4992496;28;20042;-90
2022/12/07 10:05:44;;;;;;;28.58;26.50;;;2.00;99.90;;;;;;5015176;28;20042;-91
2022/12/07 10:08:15;;;;;;;30.15;28.38;;;2.00;99.90;;;;;;5006170;28;20432;-89
2022/12/07 10:10:42;;;;;;;31.45;29.48;;;2.00;99.90;;;;;;5016191;28;20149;-87
2022/12/07 10:13:09;;;;;;;39.90;37.80;;;2.00;99.90;;;;;;5011064;28;20030;-89
2022/12/07 10:15:45;;;;;;;25.08;23.05;;;2.00;99.90;;;;;;5017547;28;20030;-88
2022/12/07 10:18:20;;;;;;;22.20;20.70;;;2.00;99.90;;;;;;5011259;28;20539;-89
2022/12/07 10:20:47;;;;;;;27.52;25.63;;;2.00;99.90;;;;;;5017412;28;20030;-89
2022/12/07 10:23:19;;;;;;;26.40;24.73;;;2.10;99.90;;;;;;5018998;28;20041;-89
2022/12/07 10:25:45;;;;;;;28.17;26.35;;;2.10;99.90;;;;;;5019828;28;20038;-90
2022/12/07 10:28:13;;;;;;;38.25;35.38;;;2.10;99.90;;;;;;5024373;28;20412;-89
2022/12/07 10:31:03;;;;;;;25.92;24.15;;;2.20;99.90;;;;;;5016233;28;20037;-90
2022/12/07 10:33:29;;;;;;;37.45;35.00;;;2.20;99.90;;;;;;5022888;28;20025;-90
2022/12/07 10:35:54;;;;;;;30.33;28.33;;;2.30;99.90;;;;;;5017040;28;20519;-88
2022/12/07 10:38:20;;;;;;;33.03;31.10;;;2.30;99.90;;;;;;5018922;28;20041;-88
2022/12/07 10:40:46;;;;;;;38.55;36.42;;;2.30;99.90;;;;;;5015926;28;20083;-89
2022/12/07 10:43:12;;;;;;;24.10;22.77;;;2.40;99.90;;;;;;5017678;28;20035;-89
2022/12/07 10:45:50;;;;;;;26.45;24.85;;;2.40;99.90;;;;;;5023900;28;20044;-89
2022/12/07 10:49:05;;;;;;;29.40;27.60;;;2.40;99.90;;;;;;5016326;28;20057;-89
2022/12/07 10:51:55;;;;;;;18.13;16.77;;;2.50;99.90;;;;;;4984017;28;20042;-91
2022/12/07 10:55:03;;;;;;;19.02;17.35;;;2.60;99.90;;;;;;5011788;28;20045;-90
2022/12/07 10:58:01;;;;;;;109.22;98.68;;;2.60;99.90;;;;;;5024020;28;20499;-90
2022/12/07 11:00:37;;;;;;;9.27;8.40;;;2.50;99.90;;;;;;5017355;28;20033;-86
2022/12/07 11:03:22;;;;;;;12.60;11.13;;;2.60;99.90;;;;;;5018477;28;20042;-87
2022/12/07 11:05:56;;;;;;;14.48;13.27;;;2.70;99.90;;;;;;5012709;28;20087;-81
2022/12/07 11:08:58;;;;;;;10.52;9.52;;;2.70;99.90;;;;;;5021613;28;20099;-79
2022/12/07 11:11:35;;;;;;;11.40;10.27;;;2.70;99.90;;;;;;5014474;28;20377;-82
2022/12/07 11:14:33;;;;;;;11.07;10.13;;;2.80;99.90;;;;;;5006114;28;20121;-82
2022/12/07 11:17:17;;;;;;;10.13;9.18;;;2.80;99.90;;;;;;5007987;28;20032;-79
2022/12/07 11:20:16;;;;;;;9.75;8.85;;;2.70;99.90;;;;;;5019556;28;20033;-81
2022/12/07 11:23:28;;;;;;;12.40;11.52;;;2.80;99.90;;;;;;5016901;28;20081;-89
2022/12/07 11:26:06;;;;;;;8.95;8.15;;;3.00;99.20;;;;;;4999786;28;20045;-79
2022/12/07 11:29:22;;;;;;;10.35;8.90;;;2.90;95.90;;;;;;5012573;28;20535;-83
2022/12/07 11:32:01;;;;;;;9.82;8.40;;;2.90;97.10;;;;;;5020874;28;20049;-81
2022/12/07 11:34:49;;;;;;;10.00;8.30;;;2.90;97.10;;;;;;5010546;28;20021;-80
2022/12/07 11:37:21;;;;;;;10.13;9.38;;;2.90;97.50;;;;;;5022910;28;20038;-82
2022/12/07 11:40:14;;;;;;;9.90;9.00;;;2.90;97.10;;;;;;5008474;28;20145;-81
2022/12/07 11:42:46;;;;;;;10.70;9.63;;;3.00;96.40;;;;;;5015986;28;20029;-80
2022/12/07 11:45:22;;;;;;;9.25;8.45;;;3.10;98.30;;;;;;5009640;28;20076;-80
2022/12/07 11:47:54;;;;;;;11.30;10.25;;;3.10;98.30;;;;;;5018445;28;20034;-82
2022/12/07 11:50:35;;;;;;;11.00;9.27;;;3.20;97.30;;;;;;5018935;28;20471;-85
2022/12/07 11:53:10;;;;;;;10.68;9.40;;;3.20;95.60;;;;;;5013866;28;20072;-82
2022/12/07 11:55:38;;;;;;;10.32;9.52;;;3.10;94.20;;;;;;5015310;28;20099;-80
2022/12/07 11:58:21;;;;;;;7.88;7.28;;;3.10;94.90;;;;;;5013689;28;20053;-79
2022/12/07 12:00:51;;;;;;;10.30;9.30;;;3.10;94.60;;;;;;5018534;28;20037;-82
2022/12/07 12:03:31;;;;;;;9.95;9.23;;;3.20;95.20;;;;;;5013073;28;20035;-80
2022/12/07 12:05:57;;;;;;;11.23;9.98;;;3.20;95.30;;;;;;5018626;28;20372;-83
2022/12/07 12:08:40;;;;;;;10.63;9.65;;;3.30;95.40;;;;;;5008976;28;20038;-86
2022/12/07 12:11:32;;;;;;;9.88;8.95;;;3.40;95.60;;;;;;5017000;28;20033;-83
2022/12/07 12:14:00;;;;;;;14.32;10.82;;;3.40;94.00;;;;;;5015812;28;20092;-85
2022/12/07 12:16:45;;;;;;;9.45;8.65;;;3.30;94.40;;;;;;5020287;28;20029;-89
2022/12/07 12:19:43;;;;;;;8.88;7.95;;;3.30;94.00;;;;;;5015046;28;20025;-88
2022/12/07 12:22:20;;;;;;;16.85;15.43;;;3.30;93.80;;;;;;5016858;28;20060;-82
2022/12/07 12:24:51;;;;;;;12.10;9.20;;;3.30;93.80;;;;;;5013999;28;20037;-85
2022/12/07 12:27:31;;;;;;;9.02;8.18;;;3.30;93.50;;;;;;5011985;28;20136;-81
2022/12/07 12:30:01;;;;;;;9.80;8.97;;;3.30;94.70;;;;;;5016064;28;20049;-80
2022/12/07 12:32:41;;;;;;;9.95;9.13;;;3.30;94.40;;;;;;5013477;28;20043;-83
2022/12/07 12:35:33;;;;;;;10.23;9.32;;;3.30;94.90;;;;;;5014405;28;20029;-81
2022/12/07 12:38:24;;;;;;;9.85;9.10;;;3.30;94.90;;;;;;5012798;28;20029;-82
2022/12/07 12:40:50;;;;;;;10.48;9.55;;;3.30;94.40;;;;;;5017170;28;20499;-81
2022/12/07 12:43:44;;;;;;;14.43;9.90;;;3.30;95.20;;;;;;5007334;28;20069;-82
2022/12/07 12:46:33;;;;;;;8.73;7.93;;;3.30;95.30;;;;;;5019105;28;20026;-80
2022/12/07 12:49:24;;;;;;;29.20;26.05;;;3.40;94.30;;;;;;5007051;28;20507;-85
2022/12/07 12:52:21;;;;;;;10.00;8.98;;;3.40;94.40;;;;;;5017007;28;20030;-84
2022/12/07 12:55:14;;;;;;;9.27;8.20;;;3.40;94.60;;;;;;5012784;28;20113;-82
2022/12/07 12:57:40;;;;;;;9.63;8.82;;;3.40;93.60;;;;;;5014857;28;20176;-83
2022/12/07 13:00:19;;;;;;;10.40;9.50;;;3.50;94.40;;;;;;5008639;28;20523;-84
2022/12/07 13:02:59;;;;;;;9.43;8.07;;;3.50;94.10;;;;;;5014283;28;20045;-88
2022/12/07 13:05:29;;;;;;;9.85;8.13;;;3.60;94.60;;;;;;5010951;28;20036;-86
2022/12/07 13:08:22;;;;;;;9.68;8.68;;;3.50;94.00;;;;;;5010911;28;20077;-81
2022/12/07 13:10:48;;;;;;;9.07;8.18;;;3.50;93.50;;;;;;5019165;28;20030;-82